Time;durP1;ratioP1;P1;durP2;ratioP2;P2;SDS_P1;SDS_P2;PMS_P1;PMS_P2;Temp;Humidity;BMP_temperature;BMP_pressure;BME280_temperature;BME280_humidity;BME280_pressure;Samples;Min_cycle;Max_cycle;Signal;HPM_P1;HPM_P2
2023/12/23 00:00:16;;;;;;;1.17;0.70;;;;;;;;;;5041149;28;20143;-63
2023/12/23 00:02:41;;;;;;;2.10;1.00;;;;;;;;;;5044195;28;20074;-62
2023/12/23 00:05:07;;;;;;;1.15;0.60;;;;;;;;;;5032698;28;20143;-62
2023/12/23 00:07:33;;;;;;;1.35;0.70;;;;;;;;;;5065833;28;20466;-62
2023/12/23 00:09:58;;;;;;;1.13;0.52;;;;;;;;;;5041856;28;20041;-62
2023/12/23 00:12:23;;;;;;;1.30;0.70;;;;;;;;;;5049183;28;20378;-61
2023/12/23 00:14:49;;;;;;;1.95;0.52;;;;;;;;;;5052047;28;20533;-61
2023/12/23 00:17:14;;;;;;;2.30;0.65;;;;;;;;;;5041709;28;20042;-60
2023/12/23 00:19:39;;;;;;;1.17;0.40;;;;;;;;;;5028477;28;20462;-61
2023/12/23 00:22:05;;;;;;;1.73;0.70;;;;;;;;;;5045875;28;20041;-62
2023/12/23 00:24:31;;;;;;;1.35;0.60;;;;;;;;;;5023188;28;20041;-62
2023/12/23 00:26:57;;;;;;;1.33;0.60;;;;;;;;;;5040540;28;20494;-61
2023/12/23 00:29:24;;;;;;;1.48;0.63;;;;;;;;;;5026055;28;20135;-60
2023/12/23 00:31:49;;;;;;;2.08;0.70;;;;;;;;;;5045292;28;20052;-61
2023/12/23 00:34:14;;;;;;;1.33;0.60;;;;;;;;;;5044686;28;20065;-61
2023/12/23 00:36:39;;;;;;;1.73;0.70;;;;;;;;;;5054464;28;20043;-61
2023/12/23 00:39:05;;;;;;;1.67;0.65;;;;;;;;;;5026792;28;20037;-61
2023/12/23 00:41:30;;;;;;;1.75;0.60;;;;;;;;;;5029842;28;20077;-60
2023/12/23 00:43:55;;;;;;;1.67;0.80;;;;;;;;;;5038155;28;20045;-61
2023/12/23 00:46:21;;;;;;;1.30;0.52;;;;;;;;;;5026701;28;20534;-61
2023/12/23 00:48:46;;;;;;;1.15;0.63;;;;;;;;;;5040441;28;20116;-61
2023/12/23 00:51:11;;;;;;;1.42;0.50;;;;;;;;;;5039175;28;20032;-61
2023/12/23 00:53:37;;;;;;;1.10;0.50;;;;;;;;;;5050347;28;20036;-61
2023/12/23 00:56:02;;;;;;;1.35;0.70;;;;;;;;;;5056181;28;20835;-62
2023/12/23 00:58:28;;;;;;;1.00;0.40;;;;;;;;;;5030196;28;20050;-61
2023/12/23 01:00:53;;;;;;;1.70;0.80;;;;;;;;;;5046424;28;20474;-61
2023/12/23 01:03:18;;;;;;;1.85;0.63;;;;;;;;;;5040342;28;20574;-60
2023/12/23 01:05:44;;;;;;;1.92;0.70;;;;;;;;;;5045905;28;20470;-60
2023/12/23 01:08:09;;;;;;;1.23;0.60;;;;;;;;;;5045672;28;20108;-61
2023/12/23 01:10:34;;;;;;;1.30;0.70;;;;;;;;;;5039998;28;20037;-61
2023/12/23 01:13:00;;;;;;;1.20;0.70;;;;;;;;;;5036294;28;20036;-61
2023/12/23 01:15:25;;;;;;;1.20;0.50;;;;;;;;;;5054203;28;20181;-61
2023/12/23 01:17:50;;;;;;;1.17;0.77;;;;;;;;;;5040029;28;20687;-64
2023/12/23 01:20:16;;;;;;;1.42;0.60;;;;;;;;;;5038954;28;20029;-61
2023/12/23 01:22:41;;;;;;;1.35;0.60;;;;;;;;;;5029936;28;20043;-61
2023/12/23 01:25:06;;;;;;;1.00;0.50;;;;;;;;;;5019590;28;20260;-62
2023/12/23 01:27:32;;;;;;;1.67;0.52;;;;;;;;;;5034987;28;20038;-62
2023/12/23 01:29:57;;;;;;;1.45;0.60;;;;;;;;;;5038594;28;20111;-61
2023/12/23 01:32:22;;;;;;;1.10;0.50;;;;;;;;;;5024693;28;20067;-60
2023/12/23 01:34:48;;;;;;;1.02;0.60;;;;;;;;;;5038125;28;20557;-60
2023/12/23 01:37:13;;;;;;;1.27;0.65;;;;;;;;;;5058595;28;20037;-60
2023/12/23 01:39:38;;;;;;;1.15;0.70;;;;;;;;;;5024763;28;20600;-60
2023/12/23 01:42:04;;;;;;;1.10;0.45;;;;;;;;;;5043659;28;20051;-61
2023/12/23 01:44:30;;;;;;;1.00;0.60;;;;;;;;;;5040609;28;20107;-61
2023/12/23 01:46:55;;;;;;;1.35;0.60;;;;;;;;;;5049310;28;20487;-61
2023/12/23 01:49:20;;;;;;;1.08;0.57;;;;;;;;;;5035407;28;20127;-61
2023/12/23 01:51:46;;;;;;;1.35;0.63;;;;;;;;;;5012489;28;20045;-61
2023/12/23 01:54:11;;;;;;;1.58;0.60;;;;;;;;;;5035443;28;20029;-61
2023/12/23 01:56:37;;;;;;;1.02;0.52;;;;;;;;;;5036826;28;20044;-60
2023/12/23 01:59:02;;;;;;;1.17;0.70;;;;;;;;;;5044223;28;20051;-60
2023/12/23 02:01:31;;;;;;;1.77;0.80;;;;;;;;;;5048515;28;20096;-60
2023/12/23 02:03:56;;;;;;;1.50;0.52;;;;;;;;;;5040093;28;20037;-60
2023/12/23 02:06:21;;;;;;;1.33;0.60;;;;;;;;;;5058896;28;20055;-60
2023/12/23 02:08:47;;;;;;;1.73;0.80;;;;;;;;;;5037714;28;20057;-61
2023/12/23 02:11:13;;;;;;;0.90;0.60;;;;;;;;;;5029281;28;20400;-61
2023/12/23 02:13:48;;;;;;;1.42;0.63;;;;;;;;;;5063984;28;20044;-61
2023/12/23 02:16:13;;;;;;;1.17;0.60;;;;;;;;;;5046078;28;20070;-61
2023/12/23 02:18:40;;;;;;;1.65;0.65;;;;;;;;;;5025763;28;20041;-61
2023/12/23 02:21:05;;;;;;;1.60;0.70;;;;;;;;;;5031901;28;20042;-61
2023/12/23 02:23:31;;;;;;;1.40;0.75;;;;;;;;;;5027628;28;20572;-61
2023/12/23 02:25:58;;;;;;;1.60;0.80;;;;;;;;;;5044465;28;20478;-61
2023/12/23 02:28:24;;;;;;;1.25;0.60;;;;;;;;;;5041817;28;20057;-61
2023/12/23 02:30:49;;;;;;;1.25;0.70;;;;;;;;;;5038298;28;20178;-61
2023/12/23 02:33:14;;;;;;;1.17;0.60;;;;;;;;;;5043495;28;20102;-61
2023/12/23 02:35:40;;;;;;;1.65;0.70;;;;;;;;;;5027889;28;20105;-61
2023/12/23 02:38:05;;;;;;;1.38;0.60;;;;;;;;;;5047951;28;20400;-61
2023/12/23 02:40:30;;;;;;;1.40;0.70;;;;;;;;;;5042771;28;20681;-60
2023/12/23 02:42:56;;;;;;;2.05;0.70;;;;;;;;;;5035456;28;20051;-60
2023/12/23 02:45:23;;;;;;;1.42;0.63;;;;;;;;;;5060509;28;20110;-59
2023/12/23 02:47:48;;;;;;;2.28;0.88;;;;;;;;;;5044174;28;20080;-60
2023/12/23 02:50:14;;;;;;;1.17;0.80;;;;;;;;;;5052900;28;20090;-60
2023/12/23 02:52:39;;;;;;;1.13;0.60;;;;;;;;;;5031676;28;20551;-60
2023/12/23 02:55:05;;;;;;;1.27;0.77;;;;;;;;;;5031589;28;20141;-60
2023/12/23 02:57:30;;;;;;;1.33;0.82;;;;;;;;;;5030081;28;20111;-60
2023/12/23 02:59:55;;;;;;;1.67;0.90;;;;;;;;;;5043631;28;20079;-60
2023/12/23 03:02:21;;;;;;;2.20;0.80;;;;;;;;;;5049975;28;20431;-61
2023/12/23 03:04:46;;;;;;;1.90;0.90;;;;;;;;;;5031194;28;20118;-60
2023/12/23 03:07:11;;;;;;;1.55;0.80;;;;;;;;;;5029029;28;20037;-60
2023/12/23 03:09:36;;;;;;;1.10;0.60;;;;;;;;;;5036170;28;20486;-60
2023/12/23 03:12:02;;;;;;;1.63;0.80;;;;;;;;;;5047903;28;20025;-60
2023/12/23 03:14:28;;;;;;;1.00;0.52;;;;;;;;;;5046362;28;20036;-61
2023/12/23 03:16:53;;;;;;;2.00;0.70;;;;;;;;;;5040450;28;20045;-60
2023/12/23 03:19:18;;;;;;;1.75;0.70;;;;;;;;;;5037978;28;20127;-61
2023/12/23 03:21:44;;;;;;;1.90;0.80;;;;;;;;;;5049077;28;20548;-61
2023/12/23 03:24:09;;;;;;;1.90;0.88;;;;;;;;;;5049172;28;20091;-60
2023/12/23 03:26:35;;;;;;;1.25;0.80;;;;;;;;;;5034148;28;20034;-60
2023/12/23 03:29:00;;;;;;;1.25;0.70;;;;;;;;;;5041901;28;20098;-60
2023/12/23 03:31:25;;;;;;;2.13;0.85;;;;;;;;;;5043222;28;20045;-60
2023/12/23 03:33:51;;;;;;;2.17;0.95;;;;;;;;;;5030898;28;20036;-60
2023/12/23 03:36:16;;;;;;;1.80;0.85;;;;;;;;;;5045562;28;20029;-61
2023/12/23 03:38:42;;;;;;;1.17;0.60;;;;;;;;;;5052345;28;20033;-61
2023/12/23 03:41:07;;;;;;;1.85;0.90;;;;;;;;;;5027196;28;20049;-61
2023/12/23 03:43:33;;;;;;;1.88;0.82;;;;;;;;;;5022982;28;20045;-60
2023/12/23 03:45:58;;;;;;;1.38;0.73;;;;;;;;;;5051343;28;20106;-61
2023/12/23 03:48:24;;;;;;;1.88;1.00;;;;;;;;;;5043321;28;20037;-61
2023/12/23 03:50:49;;;;;;;1.15;0.60;;;;;;;;;;5044102;28;20071;-60
2023/12/23 03:53:15;;;;;;;1.35;0.75;;;;;;;;;;5045434;28;20061;-61
2023/12/23 03:55:40;;;;;;;1.67;0.80;;;;;;;;;;5043340;28;20094;-61
2023/12/23 03:58:06;;;;;;;1.63;0.88;;;;;;;;;;5050570;28;20041;-61
2023/12/23 04:00:31;;;;;;;1.25;0.80;;;;;;;;;;5062512;28;20056;-61
2023/12/23 04:02:57;;;;;;;1.55;0.70;;;;;;;;;;5046387;28;20617;-61
2023/12/23 04:05:22;;;;;;;1.38;0.70;;;;;;;;;;5049808;28;20120;-61
2023/12/23 04:07:48;;;;;;;1.52;0.88;;;;;;;;;;5021803;28;20055;-61
2023/12/23 04:10:13;;;;;;;1.70;0.80;;;;;;;;;;5043615;28;20033;-61
2023/12/23 04:12:40;;;;;;;1.15;0.70;;;;;;;;;;5037868;28;20048;-61
2023/12/23 04:15:05;;;;;;;1.95;0.80;;;;;;;;;;5045218;28;20028;-61
2023/12/23 04:17:30;;;;;;;1.10;0.75;;;;;;;;;;5049114;28;20037;-60
2023/12/23 04:19:56;;;;;;;1.80;0.93;;;;;;;;;;5050875;28;20447;-61
2023/12/23 04:22:21;;;;;;;2.45;0.70;;;;;;;;;;5040267;28;20088;-61
2023/12/23 04:24:46;;;;;;;1.83;0.98;;;;;;;;;;5031686;28;20041;-60
2023/12/23 04:27:12;;;;;;;1.70;0.80;;;;;;;;;;5035379;28;20034;-60
2023/12/23 04:29:37;;;;;;;1.20;0.70;;;;;;;;;;5026318;28;20045;-60
2023/12/23 04:32:04;;;;;;;1.13;0.70;;;;;;;;;;5028713;28;20034;-60
2023/12/23 04:34:29;;;;;;;1.30;0.70;;;;;;;;;;5017660;28;20037;-60
2023/12/23 04:36:55;;;;;;;2.03;0.65;;;;;;;;;;5026833;28;20037;-61
2023/12/23 04:39:20;;;;;;;1.40;0.70;;;;;;;;;;5029704;28;20116;-60
2023/12/23 04:41:48;;;;;;;1.10;0.57;;;;;;;;;;5018662;28;20551;-60
2023/12/23 04:44:16;;;;;;;1.23;0.70;;;;;;;;;;5023093;28;20136;-61
2023/12/23 04:46:41;;;;;;;1.50;0.80;;;;;;;;;;5011790;28;20041;-61
2023/12/23 04:49:07;;;;;;;0.95;0.47;;;;;;;;;;5007465;28;20102;-61
2023/12/23 04:51:32;;;;;;;1.45;0.75;;;;;;;;;;5014905;28;20036;-60
2023/12/23 04:53:57;;;;;;;1.35;0.68;;;;;;;;;;5036684;28;20040;-61
2023/12/23 04:56:23;;;;;;;1.20;0.65;;;;;;;;;;5024008;28;20050;-61
2023/12/23 04:58:48;;;;;;;1.20;0.63;;;;;;;;;;5031984;28;20067;-61
2023/12/23 05:01:13;;;;;;;1.10;0.60;;;;;;;;;;5029621;28;20578;-60
2023/12/23 05:03:39;;;;;;;1.40;0.80;;;;;;;;;;5048562;28;20049;-60
2023/12/23 05:06:04;;;;;;;1.20;0.52;;;;;;;;;;5058047;28;20038;-61
2023/12/23 05:08:30;;;;;;;1.27;0.77;;;;;;;;;;5041469;28;20049;-61
2023/12/23 05:10:55;;;;;;;1.15;0.63;;;;;;;;;;5022052;28;20025;-61
2023/12/23 05:13:21;;;;;;;1.23;0.77;;;;;;;;;;5031938;28;20033;-60
2023/12/23 05:15:46;;;;;;;1.40;0.80;;;;;;;;;;5033372;28;20032;-61
2023/12/23 05:18:12;;;;;;;1.35;0.80;;;;;;;;;;5041410;28;20150;-61
2023/12/23 05:20:37;;;;;;;1.30;0.75;;;;;;;;;;5031684;28;20203;-60
2023/12/23 05:23:02;;;;;;;1.40;0.63;;;;;;;;;;5037665;28;20523;-60
2023/12/23 05:25:28;;;;;;;1.13;0.60;;;;;;;;;;5029881;28;20107;-59
2023/12/23 05:27:53;;;;;;;1.45;0.77;;;;;;;;;;5035014;28;20778;-60
2023/12/23 05:30:18;;;;;;;1.27;0.50;;;;;;;;;;5034839;28;20762;-60
2023/12/23 05:32:43;;;;;;;1.08;0.60;;;;;;;;;;5013067;28;20040;-60
2023/12/23 05:35:09;;;;;;;1.10;0.57;;;;;;;;;;5028452;28;20044;-60
2023/12/23 05:37:34;;;;;;;1.10;0.60;;;;;;;;;;5039465;28;20037;-60
2023/12/23 05:39:59;;;;;;;1.15;0.68;;;;;;;;;;5029731;28;20037;-60
2023/12/23 05:42:25;;;;;;;1.75;0.85;;;;;;;;;;5034749;28;20509;-60
2023/12/23 05:44:51;;;;;;;1.20;0.60;;;;;;;;;;5028447;28;20037;-61
2023/12/23 05:47:16;;;;;;;1.23;0.70;;;;;;;;;;5024624;28;20033;-61
2023/12/23 05:49:41;;;;;;;1.00;0.70;;;;;;;;;;5033604;28;20060;-60
2023/12/23 05:52:06;;;;;;;1.10;0.70;;;;;;;;;;5013397;28;20195;-61
2023/12/23 05:54:32;;;;;;;1.17;0.60;;;;;;;;;;5035138;28;20434;-61
2023/12/23 05:56:57;;;;;;;0.90;0.50;;;;;;;;;;5035980;28;20047;-61
2023/12/23 05:59:23;;;;;;;1.10;0.60;;;;;;;;;;5029423;28;20088;-61
2023/12/23 06:01:48;;;;;;;0.90;0.60;;;;;;;;;;5010223;28;20499;-62
2023/12/23 06:04:14;;;;;;;0.90;0.50;;;;;;;;;;5031318;28;20045;-62
2023/12/23 06:06:39;;;;;;;1.40;0.63;;;;;;;;;;5013561;28;20049;-60
2023/12/23 06:09:04;;;;;;;0.65;0.40;;;;;;;;;;5032125;28;20033;-61
2023/12/23 06:11:30;;;;;;;1.80;0.60;;;;;;;;;;5033022;28;20048;-61
2023/12/23 06:13:55;;;;;;;0.90;0.60;;;;;;;;;;5034212;28;20120;-61
2023/12/23 06:16:20;;;;;;;1.20;0.70;;;;;;;;;;5033904;28;20127;-61
2023/12/23 06:18:46;;;;;;;1.15;0.57;;;;;;;;;;5035502;28;20059;-61
2023/12/23 06:21:11;;;;;;;1.40;0.63;;;;;;;;;;5037461;28;20048;-61
2023/12/23 06:23:36;;;;;;;1.17;0.70;;;;;;;;;;5033472;28;20131;-61
2023/12/23 06:26:02;;;;;;;1.20;0.55;;;;;;;;;;5035902;28;20099;-61
2023/12/23 06:28:28;;;;;;;0.90;0.50;;;;;;;;;;5037681;28;20121;-61
2023/12/23 06:30:53;;;;;;;1.67;0.65;;;;;;;;;;5020494;28;20854;-62
2023/12/23 06:33:19;;;;;;;1.20;0.40;;;;;;;;;;5029202;28;20965;-61
2023/12/23 06:35:44;;;;;;;1.42;0.70;;;;;;;;;;5035655;28;20430;-61
2023/12/23 06:38:10;;;;;;;1.00;0.60;;;;;;;;;;5036981;28;20108;-61
2023/12/23 06:40:35;;;;;;;0.80;0.50;;;;;;;;;;5039074;28;20077;-62
2023/12/23 06:43:00;;;;;;;1.15;0.63;;;;;;;;;;5013591;28;20496;-63
2023/12/23 06:45:26;;;;;;;1.40;0.68;;;;;;;;;;5038644;28;20395;-61
2023/12/23 06:47:51;;;;;;;0.98;0.50;;;;;;;;;;5035846;28;20058;-61
2023/12/23 06:50:16;;;;;;;1.63;0.52;;;;;;;;;;5019292;28;20029;-62
2023/12/23 06:52:42;;;;;;;1.13;0.60;;;;;;;;;;5038768;28;20184;-61
2023/12/23 06:55:07;;;;;;;1.00;0.55;;;;;;;;;;5034499;28;20104;-60
2023/12/23 06:57:33;;;;;;;1.00;0.50;;;;;;;;;;5035482;28;20033;-60
2023/12/23 06:59:59;;;;;;;0.80;0.40;;;;;;;;;;5034725;28;20041;-61
2023/12/23 07:02:25;;;;;;;1.40;0.68;;;;;;;;;;5036266;28;20044;-61
2023/12/23 07:04:50;;;;;;;1.58;0.68;;;;;;;;;;5038748;28;20502;-60
2023/12/23 07:07:16;;;;;;;0.90;0.50;;;;;;;;;;5040193;28;20040;-60
2023/12/23 07:09:41;;;;;;;1.88;0.50;;;;;;;;;;5037354;28;20029;-61
2023/12/23 07:12:08;;;;;;;2.63;0.73;;;;;;;;;;5037050;28;20041;-62
2023/12/23 07:14:33;;;;;;;0.82;0.50;;;;;;;;;;5012031;28;20033;-61
2023/12/23 07:16:58;;;;;;;1.73;0.60;;;;;;;;;;5038818;28;20681;-61
2023/12/23 07:19:24;;;;;;;1.33;0.70;;;;;;;;;;5040872;28;20097;-64
2023/12/23 07:21:53;;;;;;;1.10;0.60;;;;;;;;;;5045804;28;20441;-57
2023/12/23 07:24:18;;;;;;;1.42;0.43;;;;;;;;;;5037774;28;20044;-58
2023/12/23 07:26:43;;;;;;;1.65;0.50;;;;;;;;;;5040698;28;20041;-58
2023/12/23 07:29:09;;;;;;;1.20;0.68;;;;;;;;;;5034650;28;20175;-58
2023/12/23 07:31:34;;;;;;;1.90;0.50;;;;;;;;;;5041259;28;20344;-58
2023/12/23 07:33:59;;;;;;;1.13;0.50;;;;;;;;;;5038627;28;20551;-58
2023/12/23 07:36:25;;;;;;;1.30;0.50;;;;;;;;;;5032697;28;20170;-58
2023/12/23 07:38:50;;;;;;;1.27;0.70;;;;;;;;;;5041938;28;20036;-58
2023/12/23 07:41:15;;;;;;;2.33;0.65;;;;;;;;;;5044615;28;20094;-57
2023/12/23 07:43:41;;;;;;;2.00;0.60;;;;;;;;;;5044507;28;20148;-57
2023/12/23 07:46:06;;;;;;;2.10;0.60;;;;;;;;;;5038651;28;20037;-57
2023/12/23 07:48:31;;;;;;;2.05;0.80;;;;;;;;;;5037086;28;20526;-57
2023/12/23 07:50:57;;;;;;;3.53;0.65;;;;;;;;;;5042915;28;20499;-57
2023/12/23 07:53:22;;;;;;;1.92;0.50;;;;;;;;;;5044403;28;20112;-56
2023/12/23 07:55:48;;;;;;;3.17;0.60;;;;;;;;;;5036379;28;20529;-56
2023/12/23 07:58:13;;;;;;;2.80;0.75;;;;;;;;;;5042901;28;20029;-58
2023/12/23 08:00:38;;;;;;;1.40;0.60;;;;;;;;;;5039958;28;20053;-56
2023/12/23 08:03:04;;;;;;;4.18;0.88;;;;;;;;;;5043514;28;20552;-57
2023/12/23 08:05:31;;;;;;;2.75;0.75;;;;;;;;;;5040378;28;20106;-57
2023/12/23 08:07:57;;;;;;;1.02;0.50;;;;;;;;;;5044563;28;20091;-57
2023/12/23 08:10:22;;;;;;;1.00;0.60;;;;;;;;;;5047385;28;20025;-57
2023/12/23 08:12:47;;;;;;;1.17;0.55;;;;;;;;;;5040281;28;20057;-56
2023/12/23 08:15:13;;;;;;;1.08;0.55;;;;;;;;;;5019632;28;20032;-57
2023/12/23 08:17:39;;;;;;;1.15;0.60;;;;;;;;;;5044390;28;20040;-57
2023/12/23 08:20:05;;;;;;;1.90;0.60;;;;;;;;;;5056456;28;20020;-57
2023/12/23 08:22:30;;;;;;;2.38;0.75;;;;;;;;;;5018264;28;20043;-58
2023/12/23 08:24:55;;;;;;;1.13;0.60;;;;;;;;;;5030453;28;20017;-58
2023/12/23 08:27:20;;;;;;;2.25;0.60;;;;;;;;;;5043021;28;20020;-57
2023/12/23 08:29:46;;;;;;;1.23;0.55;;;;;;;;;;5050427;28;20027;-58
2023/12/23 08:32:11;;;;;;;1.75;0.70;;;;;;;;;;5041681;28;20029;-57
2023/12/23 08:34:36;;;;;;;2.15;0.70;;;;;;;;;;5042637;28;20676;-57
2023/12/23 08:37:02;;;;;;;2.35;0.55;;;;;;;;;;5038747;28;20032;-57
2023/12/23 08:39:27;;;;;;;1.52;0.60;;;;;;;;;;5042046;28;20518;-57
2023/12/23 08:41:52;;;;;;;1.17;0.60;;;;;;;;;;5044122;28;20028;-57
2023/12/23 08:44:21;;;;;;;2.00;0.60;;;;;;;;;;5040947;28;20018;-57
2023/12/23 08:46:46;;;;;;;2.67;0.70;;;;;;;;;;5033049;28;20029;-58
2023/12/23 08:49:11;;;;;;;1.02;0.60;;;;;;;;;;5043129;28;20028;-57
2023/12/23 08:51:38;;;;;;;3.50;0.77;;;;;;;;;;4988707;28;20022;-57
2023/12/23 08:54:03;;;;;;;1.63;0.52;;;;;;;;;;5030841;28;20975;-58
2023/12/23 08:56:28;;;;;;;3.92;0.57;;;;;;;;;;5039945;28;20052;-73
2023/12/23 08:58:54;;;;;;;6.25;1.60;;;;;;;;;;5024977;28;20465;-58
2023/12/23 09:01:19;;;;;;;2.85;1.00;;;;;;;;;;5042586;28;20075;-58
2023/12/23 09:03:44;;;;;;;2.08;0.60;;;;;;;;;;5040345;28;20028;-58
2023/12/23 09:06:12;;;;;;;1.67;0.70;;;;;;;;;;5030121;28;20125;-59
2023/12/23 09:08:38;;;;;;;1.40;0.82;;;;;;;;;;5021529;28;20021;-57
2023/12/23 09:11:04;;;;;;;0.75;0.50;;;;;;;;;;5026198;28;20096;-58
2023/12/23 09:13:29;;;;;;;1.40;0.60;;;;;;;;;;5023340;28;20512;-58
2023/12/23 09:15:54;;;;;;;2.05;0.60;;;;;;;;;;5029265;28;20816;-58
2023/12/23 09:18:20;;;;;;;1.80;0.70;;;;;;;;;;5027626;28;20055;-57
2023/12/23 09:20:45;;;;;;;2.60;1.00;;;;;;;;;;5028910;28;20513;-57
2023/12/23 09:23:10;;;;;;;2.25;1.23;;;;;;;;;;5028903;28;20411;-58
2023/12/23 09:25:36;;;;;;;2.53;1.35;;;;;;;;;;5029706;28;20782;-58
2023/12/23 09:28:01;;;;;;;3.00;1.30;;;;;;;;;;5029898;28;20107;-59
2023/12/23 09:30:27;;;;;;;3.22;1.38;;;;;;;;;;5030812;28;20059;-58
2023/12/23 09:32:52;;;;;;;4.20;1.20;;;;;;;;;;5030623;28;20043;-57
2023/12/23 09:35:17;;;;;;;3.03;1.30;;;;;;;;;;5028359;28;20119;-58
2023/12/23 09:37:44;;;;;;;2.92;1.02;;;;;;;;;;5038674;28;20064;-57
2023/12/23 09:40:10;;;;;;;2.22;1.20;;;;;;;;;;5041096;28;20053;-57
2023/12/23 09:42:35;;;;;;;3.65;1.20;;;;;;;;;;5037734;28;20051;-57
2023/12/23 09:45:01;;;;;;;5.10;1.42;;;;;;;;;;5040445;28;20095;-56
2023/12/23 09:47:26;;;;;;;3.60;1.50;;;;;;;;;;5037501;28;20063;-57
2023/12/23 09:49:52;;;;;;;4.80;1.35;;;;;;;;;;5022765;28;20037;-57
2023/12/23 09:52:17;;;;;;;3.20;1.05;;;;;;;;;;5039769;28;20469;-57
2023/12/23 09:54:44;;;;;;;3.40;1.33;;;;;;;;;;5038880;28;20037;-58
2023/12/23 09:57:10;;;;;;;4.50;1.40;;;;;;;;;;5044361;28;20029;-58
2023/12/23 09:59:35;;;;;;;3.22;1.30;;;;;;;;;;5041327;28;20094;-57
2023/12/23 10:02:00;;;;;;;2.40;1.10;;;;;;;;;;5022911;28;20075;-57
2023/12/23 10:04:27;;;;;;;2.38;1.25;;;;;;;;;;5035655;28;20044;-57
2023/12/23 10:06:53;;;;;;;2.58;1.08;;;;;;;;;;5037207;28;20030;-56
2023/12/23 10:09:18;;;;;;;3.50;1.30;;;;;;;;;;5035475;28;20033;-57
2023/12/23 10:11:43;;;;;;;4.13;1.45;;;;;;;;;;5031005;28;20110;-57
2023/12/23 10:14:09;;;;;;;3.13;1.27;;;;;;;;;;5040611;28;20037;-57
2023/12/23 10:16:34;;;;;;;4.13;1.38;;;;;;;;;;5041964;28;20033;-57
2023/12/23 10:18:59;;;;;;;4.35;1.23;;;;;;;;;;5042024;28;20518;-58
2023/12/23 10:21:25;;;;;;;5.18;1.60;;;;;;;;;;5024013;28;20052;-57
2023/12/23 10:23:50;;;;;;;5.05;1.77;;;;;;;;;;5036434;28;20112;-57
2023/12/23 10:26:15;;;;;;;4.13;1.58;;;;;;;;;;5041774;28;20060;-58
2023/12/23 10:28:42;;;;;;;3.65;1.70;;;;;;;;;;5031200;28;20200;-56
2023/12/23 10:31:07;;;;;;;4.70;1.50;;;;;;;;;;5039557;28;20037;-56
2023/12/23 10:33:34;;;;;;;3.15;1.50;;;;;;;;;;5017238;28;20029;-58
2023/12/23 10:35:59;;;;;;;4.18;1.55;;;;;;;;;;5020647;28;20045;-56
2023/12/23 10:38:25;;;;;;;3.50;1.60;;;;;;;;;;5041005;28;20292;-56
2023/12/23 10:40:54;;;;;;;4.00;1.30;;;;;;;;;;5040334;28;20407;-56
2023/12/23 10:43:20;;;;;;;4.70;1.98;;;;;;;;;;5015920;28;20045;-56
2023/12/23 10:45:48;;;;;;;3.30;1.38;;;;;;;;;;5038001;28;20041;-57
2023/12/23 10:48:14;;;;;;;2.28;0.90;;;;;;;;;;5040827;28;20037;-57
2023/12/23 10:50:40;;;;;;;2.60;1.08;;;;;;;;;;5039562;28;20066;-57
2023/12/23 10:53:06;;;;;;;3.17;1.00;;;;;;;;;;5021756;28;20529;-57
2023/12/23 10:55:31;;;;;;;4.07;1.30;;;;;;;;;;5039046;28;20044;-56
2023/12/23 10:57:57;;;;;;;4.07;1.40;;;;;;;;;;5037326;28;20124;-57
2023/12/23 11:00:22;;;;;;;4.40;1.50;;;;;;;;;;5030307;28;20052;-57
2023/12/23 11:02:48;;;;;;;3.30;1.40;;;;;;;;;;5041228;28;20450;-57
2023/12/23 11:05:14;;;;;;;3.47;1.40;;;;;;;;;;5041340;28;20386;-56
2023/12/23 11:07:43;;;;;;;3.50;1.50;;;;;;;;;;5043818;28;20150;-56
2023/12/23 11:10:08;;;;;;;4.10;1.23;;;;;;;;;;5018634;28;20422;-57
2023/12/23 11:12:34;;;;;;;3.30;1.38;;;;;;;;;;5033756;28;20409;-57
2023/12/23 11:14:59;;;;;;;3.45;1.33;;;;;;;;;;5044839;28;20065;-57
2023/12/23 11:17:26;;;;;;;2.75;1.13;;;;;;;;;;5043169;28;20072;-57
2023/12/23 11:19:54;;;;;;;2.95;1.33;;;;;;;;;;5021214;28;20037;-57
2023/12/23 11:22:20;;;;;;;3.22;1.30;;;;;;;;;;5024185;28;20196;-57
2023/12/23 11:24:52;;;;;;;4.32;1.30;;;;;;;;;;5043739;28;20033;-57
2023/12/23 11:27:33;;;;;;;3.13;1.35;;;;;;;;;;5040603;28;20051;-57
2023/12/23 11:30:02;;;;;;;3.10;1.25;;;;;;;;;;5036280;28;20593;-56
2023/12/23 11:32:39;;;;;;;3.45;1.33;;;;;;;;;;5040212;28;20037;-57
2023/12/23 11:35:05;;;;;;;3.67;1.40;;;;;;;;;;5039490;28;20526;-56
2023/12/23 11:37:50;;;;;;;2.65;1.10;;;;;;;;;;5043352;28;20029;-56
2023/12/23 11:40:18;;;;;;;3.47;1.20;;;;;;;;;;5055771;28;20518;-56
2023/12/23 11:42:44;;;;;;;4.13;1.45;;;;;;;;;;5036387;28;20117;-56
2023/12/23 11:45:12;;;;;;;3.03;1.27;;;;;;;;;;5044426;28;20112;-57
2023/12/23 11:47:37;;;;;;;3.40;1.50;;;;;;;;;;5042934;28;20038;-58
2023/12/23 11:50:03;;;;;;;5.80;1.50;;;;;;;;;;5051228;28;20048;-58
2023/12/23 11:52:28;;;;;;;4.45;1.15;;;;;;;;;;5040052;28;20036;-56
2023/12/23 11:54:54;;;;;;;3.60;1.45;;;;;;;;;;5012658;28;20041;-56
2023/12/23 11:57:19;;;;;;;2.47;1.10;;;;;;;;;;5037944;28;20154;-57
2023/12/23 11:59:44;;;;;;;3.53;1.30;;;;;;;;;;5029051;28;20107;-57
2023/12/23 12:02:10;;;;;;;3.92;1.13;;;;;;;;;;5044428;28;20804;-56
2023/12/23 12:04:35;;;;;;;4.97;1.25;;;;;;;;;;5036415;28;20622;-57
2023/12/23 12:07:00;;;;;;;3.67;1.10;;;;;;;;;;5042593;28;20503;-57
2023/12/23 12:09:27;;;;;;;2.80;1.20;;;;;;;;;;5042982;28;20118;-57
2023/12/23 12:11:52;;;;;;;3.63;1.02;;;;;;;;;;5043354;28;20037;-56
2023/12/23 12:14:17;;;;;;;3.83;1.42;;;;;;;;;;5043779;28;20458;-57
2023/12/23 12:16:44;;;;;;;3.33;1.27;;;;;;;;;;5045364;28;20200;-56
2023/12/23 12:19:09;;;;;;;2.50;1.27;;;;;;;;;;5046383;28;20115;-56
2023/12/23 12:21:34;;;;;;;4.35;1.20;;;;;;;;;;5044962;28;20049;-60
2023/12/23 12:24:00;;;;;;;2.92;1.15;;;;;;;;;;5044240;28;20025;-56
2023/12/23 12:26:25;;;;;;;2.47;0.90;;;;;;;;;;5027585;28;20040;-56
2023/12/23 12:28:50;;;;;;;2.85;1.10;;;;;;;;;;5042888;28;20037;-56
2023/12/23 12:31:17;;;;;;;2.75;1.00;;;;;;;;;;5041016;28;20064;-56
2023/12/23 12:33:42;;;;;;;1.67;0.88;;;;;;;;;;5038025;28;20033;-56
2023/12/23 12:36:11;;;;;;;2.45;1.08;;;;;;;;;;5046049;28;20219;-56
2023/12/23 12:38:36;;;;;;;3.53;1.13;;;;;;;;;;5019814;28;20067;-58
2023/12/23 12:41:02;;;;;;;1.98;0.90;;;;;;;;;;5044744;28;20068;-57
2023/12/23 12:43:31;;;;;;;1.92;0.80;;;;;;;;;;5043522;28;20021;-57
2023/12/23 12:45:56;;;;;;;2.30;1.13;;;;;;;;;;5045133;28;20063;-56
2023/12/23 12:48:22;;;;;;;3.17;1.02;;;;;;;;;;5044114;28;20507;-56
2023/12/23 12:50:47;;;;;;;3.03;1.08;;;;;;;;;;5046888;28;20087;-57
2023/12/23 12:53:15;;;;;;;2.72;0.98;;;;;;;;;;5023180;28;20028;-56
2023/12/23 12:55:41;;;;;;;3.15;1.08;;;;;;;;;;5043718;28;20031;-57
2023/12/23 12:58:07;;;;;;;2.38;1.05;;;;;;;;;;5033413;28;20420;-56
2023/12/23 13:00:32;;;;;;;2.97;1.00;;;;;;;;;;5043981;28;21033;-57
2023/12/23 13:02:57;;;;;;;3.45;1.17;;;;;;;;;;5042545;28;20108;-57
2023/12/23 13:05:23;;;;;;;3.17;0.90;;;;;;;;;;5042964;28;20037;-57
2023/12/23 13:07:50;;;;;;;2.60;1.02;;;;;;;;;;5026251;28;20067;-56
2023/12/23 13:10:15;;;;;;;2.55;0.88;;;;;;;;;;5040903;28;20021;-57
2023/12/23 13:12:41;;;;;;;3.30;1.13;;;;;;;;;;5041397;28;20028;-57
2023/12/23 13:15:07;;;;;;;2.78;1.02;;;;;;;;;;5033865;28;20502;-57
2023/12/23 13:17:32;;;;;;;2.13;0.88;;;;;;;;;;5022994;28;20033;-57
2023/12/23 13:19:58;;;;;;;6.72;1.33;;;;;;;;;;5044446;28;20037;-57
2023/12/23 13:22:23;;;;;;;4.03;1.10;;;;;;;;;;5034807;28;20067;-56
2023/12/23 13:24:48;;;;;;;5.63;1.00;;;;;;;;;;5038349;28;20065;-56
2023/12/23 13:27:13;;;;;;;4.40;1.00;;;;;;;;;;5016916;28;20025;-56
2023/12/23 13:29:39;;;;;;;3.15;1.10;;;;;;;;;;5047157;28;20024;-56
2023/12/23 13:32:04;;;;;;;5.40;1.00;;;;;;;;;;5031472;28;20396;-56
2023/12/23 13:34:30;;;;;;;3.22;1.10;;;;;;;;;;5054367;28;20025;-55
2023/12/23 13:36:56;;;;;;;3.25;1.27;;;;;;;;;;5036536;28;20452;-56
2023/12/23 13:39:21;;;;;;;2.47;1.00;;;;;;;;;;5037368;28;20061;-56
2023/12/23 13:41:47;;;;;;;3.63;1.17;;;;;;;;;;5034844;28;20051;-56
2023/12/23 13:44:12;;;;;;;4.75;1.38;;;;;;;;;;5041658;28;20041;-56
2023/12/23 13:46:38;;;;;;;3.53;0.98;;;;;;;;;;5039263;28;20029;-56
2023/12/23 13:49:03;;;;;;;5.57;1.20;;;;;;;;;;5038390;28;20044;-56
2023/12/23 13:51:28;;;;;;;4.65;1.42;;;;;;;;;;5035452;28;20427;-56
2023/12/23 13:53:54;;;;;;;3.60;1.30;;;;;;;;;;5040822;28;20037;-56
2023/12/23 13:56:20;;;;;;;3.10;1.08;;;;;;;;;;5036344;28;20103;-57
2023/12/23 13:58:45;;;;;;;3.42;1.33;;;;;;;;;;5037199;28;20730;-56
2023/12/23 14:01:11;;;;;;;6.00;1.50;;;;;;;;;;5035850;28;20060;-56
2023/12/23 14:03:36;;;;;;;4.05;1.38;;;;;;;;;;5002966;28;20052;-56
2023/12/23 14:06:01;;;;;;;3.03;1.15;;;;;;;;;;4996834;28;20048;-55
2023/12/23 14:08:27;;;;;;;4.53;1.52;;;;;;;;;;5009459;28;20103;-56
2023/12/23 14:10:52;;;;;;;5.65;1.40;;;;;;;;;;5030390;28;20601;-56
2023/12/23 14:13:18;;;;;;;3.22;1.40;;;;;;;;;;5021732;28;20037;-56
2023/12/23 14:15:43;;;;;;;4.28;1.48;;;;;;;;;;5026135;28;20030;-56
2023/12/23 14:18:09;;;;;;;4.28;1.30;;;;;;;;;;5047483;28;20032;-56
2023/12/23 14:20:34;;;;;;;3.30;1.50;;;;;;;;;;5047742;28;20087;-56
2023/12/23 14:23:00;;;;;;;5.20;1.70;;;;;;;;;;5023547;28;20119;-56
2023/12/23 14:25:25;;;;;;;3.10;1.52;;;;;;;;;;5007212;28;20029;-57
2023/12/23 14:27:50;;;;;;;4.18;1.30;;;;;;;;;;5023154;28;20470;-57
2023/12/23 14:30:16;;;;;;;5.00;1.67;;;;;;;;;;5028501;28;20511;-57
2023/12/23 14:32:41;;;;;;;3.05;1.30;;;;;;;;;;5022816;28;20037;-56